Time;durP1;ratioP1;P1;durP2;ratioP2;P2;SDS_P1;SDS_P2;PMS_P1;PMS_P2;Temp;Humidity;BMP_temperature;BMP_pressure;BME280_temperature;BME280_humidity;BME280_pressure;Samples;Min_cycle;Max_cycle;Signal;HPM_P1;HPM_P2
2023/01/06 06:55:42;;;;;;;2.70;0.68;;;;;;;;;;10505206;28;20418;-83
2023/01/06 07:00:43;;;;;;;1.35;0.70;;;;;;;;;;10504332;28;20086;-83
2023/01/06 07:05:45;;;;;;;2.30;0.80;;;;;;;;;;10506346;28;20372;-82
2023/01/06 07:10:46;;;;;;;3.30;1.45;;;;;;;;;;10505403;28;20467;-82
2023/01/06 07:15:47;;;;;;;2.38;0.90;;;;;;;;;;10502958;28;20028;-83
2023/01/06 07:20:49;;;;;;;1.98;0.82;;;;;;;;;;10501529;28;20123;-83
2023/01/06 07:25:52;;;;;;;1.80;0.77;;;;;;;;;;10503926;28;20096;-83
2023/01/06 07:30:53;;;;;;;1.80;0.95;;;;;;;;;;10502059;28;20524;-83
2023/01/06 07:35:55;;;;;;;3.00;1.00;;;;;;;;;;10505081;28;20024;-82
2023/01/06 07:41:00;;;;;;;1.70;0.70;;;;;;;;;;10502224;28;20566;-83
2023/01/06 07:46:01;;;;;;;2.22;0.82;;;;;;;;;;10501615;28;20032;-83
2023/01/06 07:51:02;;;;;;;1.88;0.90;;;;;;;;;;10500949;28;20565;-83
2023/01/06 07:56:03;;;;;;;1.70;0.70;;;;;;;;;;10501960;28;20032;-83
2023/01/06 08:01:22;;;;;;;2.63;0.93;;;;;;;;;;10509445;28;20024;-82
2023/01/06 08:06:23;;;;;;;1.30;0.70;;;;;;;;;;10487322;28;20016;-82
2023/01/06 08:11:25;;;;;;;7.82;0.80;;;;;;;;;;10474945;28;20033;-79
2023/01/06 08:16:25;;;;;;;;;;;;;;;;;;10483834;28;20029;-80
2023/01/06 08:21:26;;;;;;;1.60;0.75;;;;;;;;;;10493211;28;20003;-79
2023/01/06 08:26:27;;;;;;;;;;;;;;;;;;10497205;28;20028;-80
2023/01/06 08:31:28;;;;;;;2.20;0.98;;;;;;;;;;10488473;28;19904;-81
2023/01/06 08:36:29;;;;;;;;;;;;;;;;;;10489147;28;20490;-80
2023/01/06 08:41:30;;;;;;;4.82;1.50;;;;;;;;;;10489122;28;19955;-80
2023/01/06 08:46:31;;;;;;;10.98;6.10;;;;;;;;;;10491427;28;20488;-80
2023/01/06 08:51:33;;;;;;;;;;;;;;;;;;10484650;28;20099;-81
2023/01/06 08:56:35;;;;;;;3.42;2.17;;;;;;;;;;10485164;28;19912;-79
2023/01/06 09:01:36;;;;;;;8.65;6.05;;;;;;;;;;10485154;28;20536;-80
2023/01/06 09:06:37;;;;;;;6.43;3.85;;;;;;;;;;10488062;28;20027;-83
2023/01/06 09:11:42;;;;;;;10.95;7.97;;;;;;;;;;10470411;28;20119;-83
2023/01/06 09:16:43;;;;;;;8.75;6.32;;;;;;;;;;10472284;28;20029;-83
2023/01/06 09:21:45;;;;;;;5.43;3.40;;;;;;;;;;10469255;28;20040;-82
2023/01/06 09:26:45;;;;;;;;;;;;;;;;;;10469199;28;20017;-83
2023/01/06 09:31:46;;;;;;;6.72;3.92;;;;;;;;;;10470595;28;20385;-83
2023/01/06 09:36:47;;;;;;;3.78;2.28;;;;;;;;;;10474080;28;20021;-83
2023/01/06 09:41:48;;;;;;;;;;;;;;;;;;10473923;28;20041;-83
2023/01/06 09:46:56;;;;;;;8.23;5.47;;;;;;;;;;10468081;28;19934;-82
2023/01/06 09:52:01;;;;;;;4.60;3.38;;;;;;;;;;10467511;28;20041;-83
2023/01/06 09:57:26;;;;;;;4.65;2.60;;;;;;;;;;10466169;28;20025;-82
2023/01/06 10:02:29;;;;;;;3.90;2.20;;;;;;;;;;10463993;28;20064;-83
2023/01/06 10:07:39;;;;;;;3.95;2.10;;;;;;;;;;10468074;28;20013;-80
2023/01/06 10:12:40;;;;;;;3.42;1.83;;;;;;;;;;10489853;28;20029;-79
2023/01/06 10:17:41;;;;;;;;;;;;;;;;;;10473950;28;20033;-82
2023/01/06 10:22:51;;;;;;;3.65;2.20;;;;;;;;;;10466229;28;19909;-82
2023/01/06 10:28:17;;;;;;;5.97;2.50;;;;;;;;;;10464639;28;20024;-81
2023/01/06 10:33:23;;;;;;;2.85;1.80;;;;;;;;;;10466951;28;20541;-81
2023/01/06 10:38:29;;;;;;;4.00;2.58;;;;;;;;;;10463975;28;20055;-82
2023/01/06 10:43:30;;;;;;;3.92;1.80;;;;;;;;;;10464372;28;20033;-80
2023/01/06 10:48:31;;;;;;;;;;;;;;;;;;10466577;28;20589;-79
2023/01/06 10:53:32;;;;;;;3.90;2.28;;;;;;;;;;10465273;28;19928;-81
2023/01/06 10:58:34;;;;;;;;;;;;;;;;;;10468116;28;20658;-80
2023/01/06 11:03:36;;;;;;;3.28;2.28;;;;;;;;;;10467834;28;20318;-81
2023/01/06 11:08:37;;;;;;;2.67;1.50;;;;;;;;;;10473212;28;20021;-81
2023/01/06 11:13:39;;;;;;;4.05;2.10;;;;;;;;;;10469762;28;20036;-81
2023/01/06 11:18:40;;;;;;;3.00;1.98;;;;;;;;;;10476597;28;20045;-80
2023/01/06 11:23:41;;;;;;;;;;;;;;;;;;10495742;28;20044;-79
2023/01/06 11:28:45;;;;;;;3.90;2.50;;;;;;;;;;10470707;28;19951;-81
2023/01/06 11:33:52;;;;;;;3.55;1.90;;;;;;;;;;10462701;28;20040;-81
2023/01/06 11:38:56;;;;;;;2.28;1.60;;;;;;;;;;10465266;28;20051;-81
2023/01/06 11:44:04;;;;;;;2.25;1.90;;;;;;;;;;10471153;28;20025;-81
2023/01/06 11:49:17;;;;;;;2.97;1.75;;;;;;;;;;10471497;28;20056;-81
2023/01/06 11:54:24;;;;;;;3.22;2.65;;;;;;;;;;10472234;28;20590;-81
2023/01/06 11:59:27;;;;;;;6.10;3.90;;;;;;;;;;10472555;28;20063;-81
2023/01/06 12:04:34;;;;;;;3.35;2.00;;;;;;;;;;10476700;28;20021;-81
2023/01/06 12:09:39;;;;;;;2.95;1.92;;;;;;;;;;10478131;28;20100;-81
2023/01/06 12:14:40;;;;;;;4.10;2.80;;;;;;;;;;10476005;28;20391;-81
2023/01/06 12:19:41;;;;;;;3.63;1.80;;;;;;;;;;10477527;28;20391;-81
2023/01/06 12:24:42;;;;;;;;;;;;;;;;;;10478815;28;20028;-81
2023/01/06 12:29:43;;;;;;;3.20;2.05;;;;;;;;;;10478061;28;19904;-83
2023/01/06 12:34:47;;;;;;;2.08;1.48;;;;;;;;;;10477536;28;20028;-82
2023/01/06 12:39:57;;;;;;;3.60;2.63;;;;;;;;;;10478331;28;20047;-81
2023/01/06 12:45:02;;;;;;;3.70;1.80;;;;;;;;;;10478151;28;20090;-81
2023/01/06 12:50:15;;;;;;;2.88;1.50;;;;;;;;;;10475359;28;20052;-80
2023/01/06 12:55:20;;;;;;;3.38;2.22;;;;;;;;;;10474472;28;20041;-80
2023/01/06 13:00:24;;;;;;;5.00;2.85;;;;;;;;;;10471436;28;20075;-80
2023/01/06 13:05:25;;;;;;;4.85;2.17;;;;;;;;;;10473282;28;20113;-79
2023/01/06 13:10:53;;;;;;;4.53;1.73;;;;;;;;;;10470737;28;20061;-82
2023/01/06 13:15:54;;;;;;;2.95;1.70;;;;;;;;;;10468037;28;20033;-80
2023/01/06 13:20:55;;;;;;;4.22;1.80;;;;;;;;;;10477006;28;20033;-79
2023/01/06 13:25:56;;;;;;;;;;;;;;;;;;10471981;28;20559;-80
2023/01/06 13:30:57;;;;;;;4.28;1.70;;;;;;;;;;10468186;28;19909;-80
2023/01/06 13:35:58;;;;;;;;;;;;;;;;;;10468359;28;20502;-80
2023/01/06 13:41:01;;;;;;;4.72;1.80;;;;;;;;;;10474567;28;19904;-79
2023/01/06 13:46:04;;;;;;;4.78;2.20;;;;;;;;;;10470147;28;20025;-80
2023/01/06 13:51:07;;;;;;;5.03;1.27;;;;;;;;;;10470455;28;20184;-80
2023/01/06 13:56:14;;;;;;;4.63;1.70;;;;;;;;;;10471019;28;20053;-78
2023/01/06 14:01:18;;;;;;;1.70;1.27;;;;;;;;;;10466507;28;20475;-79
2023/01/06 14:06:22;;;;;;;4.07;1.90;;;;;;;;;;10466028;28;20033;-78
2023/01/06 14:11:29;;;;;;;5.70;2.20;;;;;;;;;;10467798;28;20028;-80
2023/01/06 14:16:38;;;;;;;2.63;1.33;;;;;;;;;;10484780;28;20033;-81
2023/01/06 14:21:40;;;;;;;4.28;1.80;;;;;;;;;;10498728;28;20041;-81
2023/01/06 14:27:02;;;;;;;3.03;1.70;;;;;;;;;;10487198;28;20056;-80
2023/01/06 14:32:03;;;;;;;4.38;2.97;;;;;;;;;;10485036;28;20029;-80
2023/01/06 14:37:06;;;;;;;4.50;2.00;;;;;;;;;;10471939;28;20081;-82
2023/01/06 14:42:15;;;;;;;2.55;1.52;;;;;;;;;;10469034;28;20032;-82
2023/01/06 14:47:44;;;;;;;3.55;1.20;;;;;;;;;;10464019;28;20024;-81
2023/01/06 14:52:48;;;;;;;4.25;2.65;;;;;;;;;;10471551;28;20084;-82
2023/01/06 14:57:49;;;;;;;2.33;1.38;;;;;;;;;;10464171;28;20101;-82
2023/01/06 15:02:52;;;;;;;2.53;1.38;;;;;;;;;;10463584;28;20116;-82
2023/01/06 15:08:03;;;;;;;3.53;1.45;;;;;;;;;;10466674;28;20021;-82
2023/01/06 15:13:26;;;;;;;2.75;1.50;;;;;;;;;;10466099;28;20047;-84
2023/01/06 15:18:27;;;;;;;2.72;1.35;;;;;;;;;;10472807;28;20025;-82
2023/01/06 15:23:28;;;;;;;2.20;1.30;;;;;;;;;;10472151;28;20108;-82
2023/01/06 15:28:30;;;;;;;1.42;1.10;;;;;;;;;;10470404;28;20112;-83
2023/01/06 15:33:40;;;;;;;1.73;1.30;;;;;;;;;;10471702;28;20185;-83
2023/01/06 15:38:41;;;;;;;3.25;1.50;;;;;;;;;;10477038;28;20049;-81
2023/01/06 15:43:44;;;;;;;4.57;1.17;;;;;;;;;;10490829;28;20061;-81
2023/01/06 15:48:47;;;;;;;3.70;1.20;;;;;;;;;;10474453;28;20108;-81
2023/01/06 15:53:53;;;;;;;2.53;1.55;;;;;;;;;;10470314;28;20047;-82
2023/01/06 15:58:55;;;;;;;2.38;1.20;;;;;;;;;;10476333;28;20064;-81
2023/01/06 16:03:58;;;;;;;1.80;1.50;;;;;;;;;;10470250;28;20094;-81
2023/01/06 16:09:18;;;;;;;5.72;3.85;;;;;;;;;;10471282;28;20499;-81
2023/01/06 16:14:26;;;;;;;2.20;1.55;;;;;;;;;;10476011;28;20053;-81
2023/01/06 16:19:27;;;;;;;2.88;2.00;;;;;;;;;;10473977;28;20348;-82
2023/01/06 16:24:30;;;;;;;2.03;1.42;;;;;;;;;;10476235;28;20448;-82
2023/01/06 16:29:35;;;;;;;3.00;1.98;;;;;;;;;;10474841;28;20025;-81
2023/01/06 16:34:36;;;;;;;1.88;1.30;;;;;;;;;;10475943;28;20025;-82
2023/01/06 16:39:37;;;;;;;1.80;1.40;;;;;;;;;;10474312;28;20477;-82
2023/01/06 16:44:38;;;;;;;2.83;2.08;;;;;;;;;;10481961;28;20025;-82
2023/01/06 16:49:39;;;;;;;1.98;1.50;;;;;;;;;;10478059;28;20032;-81
2023/01/06 16:54:40;;;;;;;2.05;1.30;;;;;;;;;;10478163;28;20056;-82
2023/01/06 16:59:41;;;;;;;4.00;2.55;;;;;;;;;;10476502;28;20560;-82
2023/01/06 17:04:43;;;;;;;2.92;2.20;;;;;;;;;;10485725;28;20115;-82
2023/01/06 17:09:44;;;;;;;2.47;1.50;;;;;;;;;;10475906;28;20115;-82
2023/01/06 17:14:45;;;;;;;1.55;1.08;;;;;;;;;;10474246;28;20025;-82
2023/01/06 17:19:46;;;;;;;2.92;2.45;;;;;;;;;;10472366;28;20052;-85
2023/01/06 17:24:48;;;;;;;3.03;2.40;;;;;;;;;;10473489;28;20029;-85
2023/01/06 17:29:50;;;;;;;3.67;3.33;;;;;;;;;;10471715;28;20067;-85
2023/01/06 17:34:52;;;;;;;3.28;2.53;;;;;;;;;;10472877;28;20546;-84
2023/01/06 17:39:53;;;;;;;2.80;2.50;;;;;;;;;;10472923;28;20443;-84
2023/01/06 17:44:54;;;;;;;;;;;;;;;;;;10474281;28;20056;-84
2023/01/06 17:49:56;;;;;;;2.85;2.00;;;;;;;;;;10475710;28;20426;-84
2023/01/06 18:00:38;;;;;;;3.05;2.28;;;;;;;;;;10473293;22;20049;-86
2023/01/06 18:05:47;;;;;;;2.40;1.80;;;;;;;;;;10399678;28;20030;-85
2023/01/06 18:10:52;;;;;;;3.33;1.98;;;;;;;;;;10399750;28;20093;-85
2023/01/06 18:15:56;;;;;;;3.17;2.40;;;;;;;;;;10394491;28;20165;-85
2023/01/06 18:20:59;;;;;;;2.75;1.70;;;;;;;;;;10395384;28;20038;-85
2023/01/06 18:26:39;;;;;;;3.30;2.58;;;;;;;;;;10395810;28;20065;-86
2023/01/06 18:31:44;;;;;;;2.58;1.98;;;;;;;;;;10214500;29;20031;-85
2023/01/06 18:36:46;;;;;;;2.95;2.20;;;;;;;;;;10354302;28;20038;-86
2023/01/06 18:41:47;;;;;;;2.70;2.40;;;;;;;;;;10393296;28;20077;-85
2023/01/06 18:46:49;;;;;;;2.90;2.20;;;;;;;;;;10391986;28;20034;-86
2023/01/06 18:51:50;;;;;;;3.53;2.30;;;;;;;;;;10392710;28;20026;-85
2023/01/06 18:56:51;;;;;;;;;;;;;;;;;;10393689;28;20046;-85
2023/01/06 19:01:52;;;;;;;2.22;1.83;;;;;;;;;;10390077;28;20364;-86
2023/01/06 19:07:09;;;;;;;2.15;1.67;;;;;;;;;;10391430;28;20431;-85
2023/01/06 19:12:24;;;;;;;3.42;1.88;;;;;;;;;;10389098;28;20049;-85
2023/01/06 19:17:29;;;;;;;2.95;2.25;;;;;;;;;;10386621;28;20180;-86
2023/01/06 19:22:35;;;;;;;2.22;1.52;;;;;;;;;;10387946;28;20387;-86
2023/01/06 19:27:38;;;;;;;2.88;1.60;;;;;;;;;;10391061;28;20026;-86
2023/01/06 19:32:40;;;;;;;3.50;2.20;;;;;;;;;;10390534;28;20057;-86
2023/01/06 19:37:41;;;;;;;1.40;1.13;;;;;;;;;;10390058;28;20060;-85
2023/01/06 19:42:48;;;;;;;2.00;1.40;;;;;;;;;;10389939;28;20491;-85
2023/01/06 19:47:49;;;;;;;2.70;1.60;;;;;;;;;;10389501;28;20030;-85
2023/01/06 19:52:54;;;;;;;2.15;1.42;;;;;;;;;;10388182;28;20048;-85
2023/01/06 19:57:58;;;;;;;3.20;1.60;;;;;;;;;;10389618;28;20108;-85
2023/01/06 20:03:02;;;;;;;2.50;1.65;;;;;;;;;;10394307;28;20037;-84
2023/01/06 20:08:03;;;;;;;2.10;1.60;;;;;;;;;;10395167;28;20446;-85
2023/01/06 20:13:04;;;;;;;2.15;1.60;;;;;;;;;;10394106;28;20022;-86
2023/01/06 20:18:05;;;;;;;2.13;1.52;;;;;;;;;;10410658;28;20037;-85
